sensor_id;sensor_type;location;lat;lon;timestamp;temperature;humidity
25582;DHT22;13462;50.764;4.332;2023-05-09T00:02:04;14.30;99.90
25582;DHT22;13462;50.764;4.332;2023-05-09T00:04:30;14.30;99.90
25582;DHT22;13462;50.764;4.332;2023-05-09T00:06:57;14.40;99.90
25582;DHT22;13462;50.764;4.332;2023-05-09T00:09:23;14.30;99.90
25582;DHT22;13462;50.764;4.332;2023-05-09T00:11:49;14.30;99.90
25582;DHT22;13462;50.764;4.332;2023-05-09T00:14:14;14.30;99.90
25582;DHT22;13462;50.764;4.332;2023-05-09T00:16:43;14.30;99.90
25582;DHT22;13462;50.764;4.332;2023-05-09T00:19:08;14.30;99.90
25582;DHT22;13462;50.764;4.332;2023-05-09T00:21:34;14.20;99.90
25582;DHT22;13462;50.764;4.332;2023-05-09T00:23:59;14.20;99.90
25582;DHT22;13462;50.764;4.332;2023-05-09T00:26:25;14.20;99.90
25582;DHT22;13462;50.764;4.332;2023-05-09T00:28:51;14.20;99.90
25582;DHT22;13462;50.764;4.332;2023-05-09T00:31:16;14.20;99.90
25582;DHT22;13462;50.764;4.332;2023-05-09T00:33:42;14.20;99.90
25582;DHT22;13462;50.764;4.332;2023-05-09T00:36:07;14.30;99.90
25582;DHT22;13462;50.764;4.332;2023-05-09T00:38:33;14.30;99.90
25582;DHT22;13462;50.764;4.332;2023-05-09T00:40:58;14.40;99.90
25582;DHT22;13462;50.764;4.332;2023-05-09T00:43:24;14.30;99.90
25582;DHT22;13462;50.764;4.332;2023-05-09T00:45:50;14.30;99.90
25582;DHT22;13462;50.764;4.332;2023-05-09T00:48:15;14.40;99.90
25582;DHT22;13462;50.764;4.332;2023-05-09T00:50:41;14.40;99.90
25582;DHT22;13462;50.764;4.332;2023-05-09T00:53:07;14.30;99.90
25582;DHT22;13462;50.764;4.332;2023-05-09T00:55:33;14.40;99.90
25582;DHT22;13462;50.764;4.332;2023-05-09T00:57:58;14.40;99.90
25582;DHT22;13462;50.764;4.332;2023-05-09T01:00:24;14.30;99.90
25582;DHT22;13462;50.764;4.332;2023-05-09T01:02:51;14.20;99.90
25582;DHT22;13462;50.764;4.332;2023-05-09T01:05:17;14.20;99.90
25582;DHT22;13462;50.764;4.332;2023-05-09T01:07:57;14.30;99.90
25582;DHT22;13462;50.764;4.332;2023-05-09T01:10:28;14.20;99.90
25582;DHT22;13462;50.764;4.332;2023-05-09T01:17:54;14.10;99.90
25582;DHT22;13462;50.764;4.332;2023-05-09T01:22:54;14.20;99.90
25582;DHT22;13462;50.764;4.332;2023-05-09T01:30:41;14.40;99.90
25582;DHT22;13462;50.764;4.332;2023-05-09T01:33:07;14.40;99.90
25582;DHT22;13462;50.764;4.332;2023-05-09T01:35:34;14.30;99.90
25582;DHT22;13462;50.764;4.332;2023-05-09T01:38:01;14.20;99.90
25582;DHT22;13462;50.764;4.332;2023-05-09T01:40:29;14.20;99.90
25582;DHT22;13462;50.764;4.332;2023-05-09T01:43:03;14.20;99.90
25582;DHT22;13462;50.764;4.332;2023-05-09T01:45:30;14.20;99.90
25582;DHT22;13462;50.764;4.332;2023-05-09T01:47:57;14.20;99.90
25582;DHT22;13462;50.764;4.332;2023-05-09T01:50:22;14.10;99.90
25582;DHT22;13462;50.764;4.332;2023-05-09T01:52:49;14.10;99.90
25582;DHT22;13462;50.764;4.332;2023-05-09T01:55:16;14.10;99.90
25582;DHT22;13462;50.764;4.332;2023-05-09T01:57:44;14.10;99.90
25582;DHT22;13462;50.764;4.332;2023-05-09T02:00:10;14.10;99.90
25582;DHT22;13462;50.764;4.332;2023-05-09T02:02:37;14.10;99.90
25582;DHT22;13462;50.764;4.332;2023-05-09T02:05:03;14.10;99.90
25582;DHT22;13462;50.764;4.332;2023-05-09T02:07:29;14.10;99.90
25582;DHT22;13462;50.764;4.332;2023-05-09T02:09:54;14.10;99.90
25582;DHT22;13462;50.764;4.332;2023-05-09T02:12:22;14.10;99.90
25582;DHT22;13462;50.764;4.332;2023-05-09T02:14:47;14.00;99.90
25582;DHT22;13462;50.764;4.332;2023-05-09T02:17:13;14.00;99.90
25582;DHT22;13462;50.764;4.332;2023-05-09T02:19:41;14.00;99.90
25582;DHT22;13462;50.764;4.332;2023-05-09T02:22:07;14.00;99.90
25582;DHT22;13462;50.764;4.332;2023-05-09T02:24:33;14.00;99.90
25582;DHT22;13462;50.764;4.332;2023-05-09T02:26:58;14.00;99.90
25582;DHT22;13462;50.764;4.332;2023-05-09T02:29:25;14.00;99.90
25582;DHT22;13462;50.764;4.332;2023-05-09T02:31:51;14.00;99.90
25582;DHT22;13462;50.764;4.332;2023-05-09T02:34:17;14.00;99.90
25582;DHT22;13462;50.764;4.332;2023-05-09T02:36:43;14.00;99.90
25582;DHT22;13462;50.764;4.332;2023-05-09T02:39:09;14.00;99.90
25582;DHT22;13462;50.764;4.332;2023-05-09T02:41:35;14.00;99.90
25582;DHT22;13462;50.764;4.332;2023-05-09T02:44:01;14.00;99.90
25582;DHT22;13462;50.764;4.332;2023-05-09T02:46:26;14.00;99.90
25582;DHT22;13462;50.764;4.332;2023-05-09T02:48:52;14.00;99.90
25582;DHT22;13462;50.764;4.332;2023-05-09T02:51:17;14.00;99.90
25582;DHT22;13462;50.764;4.332;2023-05-09T02:53:43;14.10;99.90
25582;DHT22;13462;50.764;4.332;2023-05-09T02:56:08;14.10;99.90
25582;DHT22;13462;50.764;4.332;2023-05-09T02:58:35;14.10;99.90
25582;DHT22;13462;50.764;4.332;2023-05-09T03:01:00;14.10;99.90
25582;DHT22;13462;50.764;4.332;2023-05-09T03:03:26;14.10;99.90
25582;DHT22;13462;50.764;4.332;2023-05-09T03:05:51;14.20;99.90
25582;DHT22;13462;50.764;4.332;2023-05-09T03:08:17;14.20;99.90
25582;DHT22;13462;50.764;4.332;2023-05-09T03:10:42;14.20;99.90
25582;DHT22;13462;50.764;4.332;2023-05-09T03:13:08;14.20;99.90
25582;DHT22;13462;50.764;4.332;2023-05-09T03:15:33;14.30;99.90
25582;DHT22;13462;50.764;4.332;2023-05-09T03:17:59;14.30;99.90
25582;DHT22;13462;50.764;4.332;2023-05-09T03:20:24;14.20;99.90
25582;DHT22;13462;50.764;4.332;2023-05-09T03:22:50;14.30;99.90
25582;DHT22;13462;50.764;4.332;2023-05-09T03:25:15;14.30;99.90
25582;DHT22;13462;50.764;4.332;2023-05-09T03:27:41;14.20;99.90
25582;DHT22;13462;50.764;4.332;2023-05-09T03:30:07;14.20;99.90
25582;DHT22;13462;50.764;4.332;2023-05-09T03:32:32;14.30;99.90
25582;DHT22;13462;50.764;4.332;2023-05-09T03:34:58;14.30;99.90
25582;DHT22;13462;50.764;4.332;2023-05-09T03:37:23;14.30;99.90
25582;DHT22;13462;50.764;4.332;2023-05-09T03:39:49;14.40;99.90
25582;DHT22;13462;50.764;4.332;2023-05-09T03:42:14;14.40;99.90
25582;DHT22;13462;50.764;4.332;2023-05-09T03:44:40;14.40;99.90
25582;DHT22;13462;50.764;4.332;2023-05-09T03:47:05;14.50;99.90
25582;DHT22;13462;50.764;4.332;2023-05-09T03:49:31;14.60;99.90
25582;DHT22;13462;50.764;4.332;2023-05-09T03:51:56;14.50;99.90
25582;DHT22;13462;50.764;4.332;2023-05-09T03:54:22;14.60;99.90
25582;DHT22;13462;50.764;4.332;2023-05-09T03:56:47;14.60;99.90
25582;DHT22;13462;50.764;4.332;2023-05-09T03:59:13;14.60;99.90
25582;DHT22;13462;50.764;4.332;2023-05-09T04:01:38;14.70;99.90
25582;DHT22;13462;50.764;4.332;2023-05-09T04:04:04;14.70;99.90
25582;DHT22;13462;50.764;4.332;2023-05-09T04:06:30;14.80;99.90
25582;DHT22;13462;50.764;4.332;2023-05-09T04:08:55;14.70;99.90
25582;DHT22;13462;50.764;4.332;2023-05-09T04:11:21;14.60;99.90
25582;DHT22;13462;50.764;4.332;2023-05-09T04:13:46;14.60;99.90
25582;DHT22;13462;50.764;4.332;2023-05-09T04:16:12;14.70;99.90
25582;DHT22;13462;50.764;4.332;2023-05-09T04:18:37;14.70;99.90
25582;DHT22;13462;50.764;4.332;2023-05-09T04:21:06;14.60;99.90
25582;DHT22;13462;50.764;4.332;2023-05-09T04:23:32;14.60;99.90
25582;DHT22;13462;50.764;4.332;2023-05-09T04:25:57;14.70;99.90
25582;DHT22;13462;50.764;4.332;2023-05-09T04:28:23;14.80;99.90
25582;DHT22;13462;50.764;4.332;2023-05-09T04:30:48;14.80;99.90
25582;DHT22;13462;50.764;4.332;2023-05-09T04:33:14;14.80;99.90
25582;DHT22;13462;50.764;4.332;2023-05-09T04:35:39;14.90;99.90
25582;DHT22;13462;50.764;4.332;2023-05-09T04:38:05;14.90;99.90
25582;DHT22;13462;50.764;4.332;2023-05-09T04:40:31;14.80;99.90
25582;DHT22;13462;50.764;4.332;2023-05-09T04:42:57;14.80;99.90
25582;DHT22;13462;50.764;4.332;2023-05-09T04:45:23;14.90;99.90
25582;DHT22;13462;50.764;4.332;2023-05-09T04:47:48;14.90;99.90
25582;DHT22;13462;50.764;4.332;2023-05-09T04:50:14;14.90;99.90
25582;DHT22;13462;50.764;4.332;2023-05-09T04:52:40;14.90;99.90
25582;DHT22;13462;50.764;4.332;2023-05-09T04:55:06;14.80;99.90
25582;DHT22;13462;50.764;4.332;2023-05-09T04:57:32;14.80;99.90
25582;DHT22;13462;50.764;4.332;2023-05-09T04:59:57;14.70;99.90
25582;DHT22;13462;50.764;4.332;2023-05-09T05:02:23;14.70;99.90
25582;DHT22;13462;50.764;4.332;2023-05-09T05:04:49;14.70;99.90
25582;DHT22;13462;50.764;4.332;2023-05-09T05:07:15;14.80;99.90
25582;DHT22;13462;50.764;4.332;2023-05-09T05:09:40;14.70;99.90
25582;DHT22;13462;50.764;4.332;2023-05-09T05:12:06;14.70;99.90
25582;DHT22;13462;50.764;4.332;2023-05-09T05:14:33;14.80;99.90
25582;DHT22;13462;50.764;4.332;2023-05-09T05:16:58;14.90;99.90
25582;DHT22;13462;50.764;4.332;2023-05-09T05:19:24;14.80;99.90
25582;DHT22;13462;50.764;4.332;2023-05-09T05:21:49;14.80;99.90
25582;DHT22;13462;50.764;4.332;2023-05-09T05:24:15;14.80;99.90
25582;DHT22;13462;50.764;4.332;2023-05-09T05:26:40;14.80;99.90
25582;DHT22;13462;50.764;4.332;2023-05-09T05:29:06;14.70;99.90
25582;DHT22;13462;50.764;4.332;2023-05-09T05:31:31;14.70;99.90
25582;DHT22;13462;50.764;4.332;2023-05-09T05:33:57;14.70;99.90
25582;DHT22;13462;50.764;4.332;2023-05-09T05:36:22;14.70;99.90
25582;DHT22;13462;50.764;4.332;2023-05-09T05:38:48;14.70;99.90
25582;DHT22;13462;50.764;4.332;2023-05-09T05:41:13;14.80;99.90
25582;DHT22;13462;50.764;4.332;2023-05-09T05:43:39;14.70;99.90
25582;DHT22;13462;50.764;4.332;2023-05-09T05:46:05;14.70;99.90
25582;DHT22;13462;50.764;4.332;2023-05-09T05:48:30;14.70;99.90
25582;DHT22;13462;50.764;4.332;2023-05-09T05:50:56;14.90;99.90
25582;DHT22;13462;50.764;4.332;2023-05-09T05:53:21;14.90;99.90
25582;DHT22;13462;50.764;4.332;2023-05-09T05:55:47;14.90;99.90
25582;DHT22;13462;50.764;4.332;2023-05-09T05:58:13;14.90;99.90
25582;DHT22;13462;50.764;4.332;2023-05-09T06:00:39;15.00;99.90
25582;DHT22;13462;50.764;4.332;2023-05-09T06:03:04;15.00;99.90
25582;DHT22;13462;50.764;4.332;2023-05-09T06:05:30;15.00;99.90
25582;DHT22;13462;50.764;4.332;2023-05-09T06:07:55;15.10;99.90
25582;DHT22;13462;50.764;4.332;2023-05-09T06:10:21;15.20;99.90
25582;DHT22;13462;50.764;4.332;2023-05-09T06:12:46;15.20;99.90
25582;DHT22;13462;50.764;4.332;2023-05-09T06:15:12;15.30;99.90
25582;DHT22;13462;50.764;4.332;2023-05-09T06:17:37;15.30;99.90
25582;DHT22;13462;50.764;4.332;2023-05-09T06:20:03;15.40;99.90
25582;DHT22;13462;50.764;4.332;2023-05-09T06:22:28;15.40;99.90
25582;DHT22;13462;50.764;4.332;2023-05-09T06:24:54;15.40;99.90
25582;DHT22;13462;50.764;4.332;2023-05-09T06:27:19;15.40;99.90
25582;DHT22;13462;50.764;4.332;2023-05-09T06:29:45;15.40;99.90
25582;DHT22;13462;50.764;4.332;2023-05-09T06:32:10;15.40;99.90
25582;DHT22;13462;50.764;4.332;2023-05-09T06:34:36;15.40;99.90
25582;DHT22;13462;50.764;4.332;2023-05-09T06:37:01;15.40;99.90
25582;DHT22;13462;50.764;4.332;2023-05-09T06:39:27;15.40;99.90
25582;DHT22;13462;50.764;4.332;2023-05-09T06:41:52;15.40;99.90
25582;DHT22;13462;50.764;4.332;2023-05-09T06:44:18;15.50;99.90
25582;DHT22;13462;50.764;4.332;2023-05-09T06:46:43;15.50;99.90
25582;DHT22;13462;50.764;4.332;2023-05-09T06:49:09;15.60;99.90
25582;DHT22;13462;50.764;4.332;2023-05-09T06:51:35;15.60;99.90
25582;DHT22;13462;50.764;4.332;2023-05-09T06:54:00;15.50;99.90
25582;DHT22;13462;50.764;4.332;2023-05-09T06:56:26;15.50;99.90
25582;DHT22;13462;50.764;4.332;2023-05-09T06:58:51;15.60;99.90
25582;DHT22;13462;50.764;4.332;2023-05-09T07:01:17;15.70;99.90
25582;DHT22;13462;50.764;4.332;2023-05-09T07:03:43;15.70;99.90
25582;DHT22;13462;50.764;4.332;2023-05-09T07:06:08;15.80;99.90
25582;DHT22;13462;50.764;4.332;2023-05-09T07:08:34;15.60;99.90
25582;DHT22;13462;50.764;4.332;2023-05-09T07:10:59;15.60;99.90
25582;DHT22;13462;50.764;4.332;2023-05-09T07:13:25;15.50;99.90
25582;DHT22;13462;50.764;4.332;2023-05-09T07:15:50;15.60;99.90
25582;DHT22;13462;50.764;4.332;2023-05-09T07:18:16;15.60;99.90
25582;DHT22;13462;50.764;4.332;2023-05-09T07:20:41;15.60;99.90
25582;DHT22;13462;50.764;4.332;2023-05-09T07:23:07;15.60;99.90
25582;DHT22;13462;50.764;4.332;2023-05-09T07:25:32;15.70;99.90
25582;DHT22;13462;50.764;4.332;2023-05-09T07:27:58;15.70;99.90
25582;DHT22;13462;50.764;4.332;2023-05-09T07:30:23;15.60;99.90
25582;DHT22;13462;50.764;4.332;2023-05-09T07:32:49;15.50;99.90
25582;DHT22;13462;50.764;4.332;2023-05-09T07:35:16;15.60;99.90
25582;DHT22;13462;50.764;4.332;2023-05-09T07:37:41;15.70;99.90
25582;DHT22;13462;50.764;4.332;2023-05-09T07:40:07;15.80;99.90
25582;DHT22;13462;50.764;4.332;2023-05-09T07:42:33;15.80;99.90
25582;DHT22;13462;50.764;4.332;2023-05-09T07:44:58;15.80;99.90
25582;DHT22;13462;50.764;4.332;2023-05-09T07:47:24;15.70;99.90
25582;DHT22;13462;50.764;4.332;2023-05-09T07:49:50;15.60;99.90
25582;DHT22;13462;50.764;4.332;2023-05-09T07:52:16;15.70;99.90
25582;DHT22;13462;50.764;4.332;2023-05-09T07:54:42;15.60;99.90
25582;DHT22;13462;50.764;4.332;2023-05-09T07:57:07;15.60;99.90
25582;DHT22;13462;50.764;4.332;2023-05-09T07:59:33;15.60;99.90
25582;DHT22;13462;50.764;4.332;2023-05-09T08:01:58;15.50;99.90
25582;DHT22;13462;50.764;4.332;2023-05-09T08:04:24;15.50;99.90
25582;DHT22;13462;50.764;4.332;2023-05-09T08:06:50;15.40;99.90
25582;DHT22;13462;50.764;4.332;2023-05-09T08:09:15;15.40;99.90
25582;DHT22;13462;50.764;4.332;2023-05-09T08:11:41;15.50;99.90
25582;DHT22;13462;50.764;4.332;2023-05-09T08:14:06;15.50;99.90
25582;DHT22;13462;50.764;4.332;2023-05-09T08:16:32;15.50;99.90
25582;DHT22;13462;50.764;4.332;2023-05-09T08:18:58;15.60;99.90
25582;DHT22;13462;50.764;4.332;2023-05-09T08:21:23;15.70;99.90
25582;DHT22;13462;50.764;4.332;2023-05-09T08:23:49;15.70;99.90
25582;DHT22;13462;50.764;4.332;2023-05-09T08:26:14;15.80;99.90
25582;DHT22;13462;50.764;4.332;2023-05-09T08:28:40;15.70;99.90
25582;DHT22;13462;50.764;4.332;2023-05-09T08:31:05;15.60;99.90
25582;DHT22;13462;50.764;4.332;2023-05-09T08:33:31;15.60;99.90
25582;DHT22;13462;50.764;4.332;2023-05-09T08:35:56;15.50;99.90
25582;DHT22;13462;50.764;4.332;2023-05-09T08:38:22;15.60;99.90
25582;DHT22;13462;50.764;4.332;2023-05-09T08:40:48;15.70;99.90
25582;DHT22;13462;50.764;4.332;2023-05-09T08:43:14;15.70;99.90
25582;DHT22;13462;50.764;4.332;2023-05-09T08:45:46;15.60;99.90
25582;DHT22;13462;50.764;4.332;2023-05-09T08:48:14;15.50;99.90
25582;DHT22;13462;50.764;4.332;2023-05-09T08:50:39;15.50;99.90
25582;DHT22;13462;50.764;4.332;2023-05-09T08:53:05;15.40;99.90
25582;DHT22;13462;50.764;4.332;2023-05-09T08:55:31;15.40;99.90
25582;DHT22;13462;50.764;4.332;2023-05-09T08:57:56;15.40;99.90
25582;DHT22;13462;50.764;4.332;2023-05-09T09:00:22;15.50;99.90
25582;DHT22;13462;50.764;4.332;2023-05-09T09:02:47;15.60;99.90
25582;DHT22;13462;50.764;4.332;2023-05-09T09:05:13;15.70;99.90
25582;DHT22;13462;50.764;4.332;2023-05-09T09:07:39;15.80;99.90
25582;DHT22;13462;50.764;4.332;2023-05-09T09:10:04;16.00;99.90
25582;DHT22;13462;50.764;4.332;2023-05-09T09:12:31;16.10;99.90
25582;DHT22;13462;50.764;4.332;2023-05-09T09:14:59;16.10;99.90
25582;DHT22;13462;50.764;4.332;2023-05-09T09:17:27;16.00;99.90
25582;DHT22;13462;50.764;4.332;2023-05-09T09:19:54;15.90;99.90
25582;DHT22;13462;50.764;4.332;2023-05-09T09:22:20;15.80;99.90
25582;DHT22;13462;50.764;4.332;2023-05-09T09:24:46;15.70;99.90
25582;DHT22;13462;50.764;4.332;2023-05-09T09:27:12;15.60;99.90
25582;DHT22;13462;50.764;4.332;2023-05-09T09:29:37;15.70;99.90
25582;DHT22;13462;50.764;4.332;2023-05-09T09:32:04;15.60;99.90
25582;DHT22;13462;50.764;4.332;2023-05-09T09:34:29;15.60;99.90
25582;DHT22;13462;50.764;4.332;2023-05-09T09:36:55;15.60;99.90
25582;DHT22;13462;50.764;4.332;2023-05-09T09:39:21;15.60;99.90
25582;DHT22;13462;50.764;4.332;2023-05-09T09:41:46;15.40;99.90
25582;DHT22;13462;50.764;4.332;2023-05-09T09:46:41;15.50;99.90
25582;DHT22;13462;50.764;4.332;2023-05-09T09:49:08;15.40;99.90
25582;DHT22;13462;50.764;4.332;2023-05-09T09:51:33;15.40;99.90
25582;DHT22;13462;50.764;4.332;2023-05-09T09:54:00;15.50;99.90
25582;DHT22;13462;50.764;4.332;2023-05-09T09:56:47;15.40;99.90
25582;DHT22;13462;50.764;4.332;2023-05-09T09:59:15;15.50;99.90
25582;DHT22;13462;50.764;4.332;2023-05-09T10:01:59;15.50;99.90
25582;DHT22;13462;50.764;4.332;2023-05-09T10:04:29;15.60;99.90
25582;DHT22;13462;50.764;4.332;2023-05-09T10:06:56;15.70;99.90
25582;DHT22;13462;50.764;4.332;2023-05-09T10:09:23;15.80;99.90
25582;DHT22;13462;50.764;4.332;2023-05-09T10:11:50;15.80;99.90
25582;DHT22;13462;50.764;4.332;2023-05-09T10:14:20;15.80;99.90
25582;DHT22;13462;50.764;4.332;2023-05-09T10:16:50;15.70;99.90
25582;DHT22;13462;50.764;4.332;2023-05-09T10:19:19;15.60;99.90
25582;DHT22;13462;50.764;4.332;2023-05-09T10:22:27;15.40;99.90
25582;DHT22;13462;50.764;4.332;2023-05-09T10:27:09;15.40;99.90
25582;DHT22;13462;50.764;4.332;2023-05-09T10:29:56;15.50;99.90
25582;DHT22;13462;50.764;4.332;2023-05-09T10:32:30;15.70;99.90
25582;DHT22;13462;50.764;4.332;2023-05-09T10:34:59;15.80;99.90
25582;DHT22;13462;50.764;4.332;2023-05-09T10:37:26;15.90;99.90
25582;DHT22;13462;50.764;4.332;2023-05-09T10:39:52;15.80;99.90
25582;DHT22;13462;50.764;4.332;2023-05-09T10:42:18;15.70;99.90
25582;DHT22;13462;50.764;4.332;2023-05-09T10:44:45;15.70;99.90
25582;DHT22;13462;50.764;4.332;2023-05-09T10:47:10;15.60;99.90
25582;DHT22;13462;50.764;4.332;2023-05-09T10:49:37;15.60;99.90
25582;DHT22;13462;50.764;4.332;2023-05-09T10:52:03;15.50;99.90
25582;DHT22;13462;50.764;4.332;2023-05-09T10:54:29;15.50;99.90
25582;DHT22;13462;50.764;4.332;2023-05-09T10:56:58;15.40;99.90
25582;DHT22;13462;50.764;4.332;2023-05-09T10:59:34;15.40;99.90
25582;DHT22;13462;50.764;4.332;2023-05-09T11:02:00;15.20;99.90
25582;DHT22;13462;50.764;4.332;2023-05-09T11:04:27;15.20;99.90
25582;DHT22;13462;50.764;4.332;2023-05-09T11:06:53;15.20;99.90
25582;DHT22;13462;50.764;4.332;2023-05-09T11:11:55;15.10;99.90
25582;DHT22;13462;50.764;4.332;2023-05-09T11:14:38;15.30;99.90
25582;DHT22;13462;50.764;4.332;2023-05-09T11:17:04;15.20;99.90
25582;DHT22;13462;50.764;4.332;2023-05-09T11:22:21;15.30;99.90
25582;DHT22;13462;50.764;4.332;2023-05-09T11:24:47;15.30;99.90
25582;DHT22;13462;50.764;4.332;2023-05-09T11:27:23;15.40;99.90
25582;DHT22;13462;50.764;4.332;2023-05-09T11:29:49;15.30;99.90
25582;DHT22;13462;50.764;4.332;2023-05-09T11:32:15;15.20;99.90
25582;DHT22;13462;50.764;4.332;2023-05-09T11:34:44;15.00;99.90
25582;DHT22;13462;50.764;4.332;2023-05-09T11:37:10;15.10;99.90
25582;DHT22;13462;50.764;4.332;2023-05-09T11:39:55;15.10;99.90
25582;DHT22;13462;50.764;4.332;2023-05-09T11:42:27;15.20;99.90
25582;DHT22;13462;50.764;4.332;2023-05-09T11:44:53;15.10;99.90
25582;DHT22;13462;50.764;4.332;2023-05-09T11:47:20;15.00;99.90
25582;DHT22;13462;50.764;4.332;2023-05-09T11:49:46;14.80;99.90
25582;DHT22;13462;50.764;4.332;2023-05-09T11:52:12;14.80;99.90
25582;DHT22;13462;50.764;4.332;2023-05-09T11:54:38;14.80;99.90
25582;DHT22;13462;50.764;4.332;2023-05-09T11:57:03;14.90;99.90
25582;DHT22;13462;50.764;4.332;2023-05-09T11:59:29;14.70;99.90
25582;DHT22;13462;50.764;4.332;2023-05-09T12:01:55;14.80;99.90
25582;DHT22;13462;50.764;4.332;2023-05-09T12:04:21;14.80;99.90
25582;DHT22;13462;50.764;4.332;2023-05-09T12:06:47;14.80;99.90
25582;DHT22;13462;50.764;4.332;2023-05-09T12:09:13;14.60;99.90
25582;DHT22;13462;50.764;4.332;2023-05-09T12:11:49;14.50;99.90
25582;DHT22;13462;50.764;4.332;2023-05-09T12:14:27;14.30;99.90
25582;DHT22;13462;50.764;4.332;2023-05-09T12:16:53;14.10;99.90
25582;DHT22;13462;50.764;4.332;2023-05-09T12:19:19;14.20;99.90
25582;DHT22;13462;50.764;4.332;2023-05-09T12:21:45;14.20;99.90
25582;DHT22;13462;50.764;4.332;2023-05-09T12:24:10;14.20;99.90
25582;DHT22;13462;50.764;4.332;2023-05-09T12:26:36;14.20;99.90
25582;DHT22;13462;50.764;4.332;2023-05-09T12:29:01;14.10;99.90
25582;DHT22;13462;50.764;4.332;2023-05-09T12:31:27;14.00;99.90
25582;DHT22;13462;50.764;4.332;2023-05-09T12:33:53;14.10;99.90
25582;DHT22;13462;50.764;4.332;2023-05-09T12:36:18;14.10;99.90
25582;DHT22;13462;50.764;4.332;2023-05-09T12:38:53;14.10;99.90
25582;DHT22;13462;50.764;4.332;2023-05-09T12:41:19;14.20;99.90
25582;DHT22;13462;50.764;4.332;2023-05-09T12:43:49;14.30;99.90
25582;DHT22;13462;50.764;4.332;2023-05-09T12:46:18;14.50;99.90
25582;DHT22;13462;50.764;4.332;2023-05-09T12:48:44;14.40;99.90
25582;DHT22;13462;50.764;4.332;2023-05-09T12:51:10;14.40;99.90
25582;DHT22;13462;50.764;4.332;2023-05-09T12:53:36;14.30;99.90
25582;DHT22;13462;50.764;4.332;2023-05-09T12:56:03;14.30;99.90
25582;DHT22;13462;50.764;4.332;2023-05-09T12:58:31;14.30;99.90
25582;DHT22;13462;50.764;4.332;2023-05-09T13:00:58;14.30;99.90
25582;DHT22;13462;50.764;4.332;2023-05-09T13:03:24;14.40;99.90
25582;DHT22;13462;50.764;4.332;2023-05-09T13:05:53;14.30;99.90
25582;DHT22;13462;50.764;4.332;2023-05-09T13:08:19;14.30;99.90
25582;DHT22;13462;50.764;4.332;2023-05-09T13:10:45;14.30;99.90
25582;DHT22;13462;50.764;4.332;2023-05-09T13:13:14;14.20;99.90
25582;DHT22;13462;50.764;4.332;2023-05-09T13:15:40;14.30;99.90
25582;DHT22;13462;50.764;4.332;2023-05-09T13:18:05;14.20;99.90
25582;DHT22;13462;50.764;4.332;2023-05-09T13:20:31;14.20;99.90
25582;DHT22;13462;50.764;4.332;2023-05-09T13:22:56;14.20;99.90
25582;DHT22;13462;50.764;4.332;2023-05-09T13:25:22;14.00;99.90
25582;DHT22;13462;50.764;4.332;2023-05-09T13:27:47;14.10;99.90
25582;DHT22;13462;50.764;4.332;2023-05-09T13:30:13;14.10;99.90
25582;DHT22;13462;50.764;4.332;2023-05-09T13:32:39;14.10;99.90
25582;DHT22;13462;50.764;4.332;2023-05-09T13:35:05;14.10;99.90
25582;DHT22;13462;50.764;4.332;2023-05-09T13:37:35;14.10;99.90
25582;DHT22;13462;50.764;4.332;2023-05-09T13:40:01;14.10;99.90
25582;DHT22;13462;50.764;4.332;2023-05-09T13:42:26;14.20;99.90
25582;DHT22;13462;50.764;4.332;2023-05-09T13:44:52;14.10;99.90
25582;DHT22;13462;50.764;4.332;2023-05-09T13:47:17;14.00;99.90
25582;DHT22;13462;50.764;4.332;2023-05-09T13:49:43;14.10;99.90
25582;DHT22;13462;50.764;4.332;2023-05-09T13:52:09;14.10;99.90
25582;DHT22;13462;50.764;4.332;2023-05-09T13:54:34;14.10;99.90
25582;DHT22;13462;50.764;4.332;2023-05-09T13:57:01;14.20;99.90
25582;DHT22;13462;50.764;4.332;2023-05-09T13:59:26;14.20;99.90
25582;DHT22;13462;50.764;4.332;2023-05-09T14:01:52;14.30;99.90
25582;DHT22;13462;50.764;4.332;2023-05-09T14:04:17;14.20;99.90
25582;DHT22;13462;50.764;4.332;2023-05-09T14:06:43;14.10;99.90
25582;DHT22;13462;50.764;4.332;2023-05-09T14:09:12;14.10;99.90
25582;DHT22;13462;50.764;4.332;2023-05-09T14:11:39;14.00;99.90
25582;DHT22;13462;50.764;4.332;2023-05-09T14:14:05;13.90;99.90
25582;DHT22;13462;50.764;4.332;2023-05-09T14:16:31;13.90;99.90
25582;DHT22;13462;50.764;4.332;2023-05-09T14:18:56;14.00;99.90
25582;DHT22;13462;50.764;4.332;2023-05-09T14:21:22;14.10;99.90
25582;DHT22;13462;50.764;4.332;2023-05-09T14:23:48;14.10;99.90
25582;DHT22;13462;50.764;4.332;2023-05-09T14:26:14;14.20;99.90
25582;DHT22;13462;50.764;4.332;2023-05-09T14:28:39;14.20;99.90
25582;DHT22;13462;50.764;4.332;2023-05-09T14:31:05;14.30;99.90
25582;DHT22;13462;50.764;4.332;2023-05-09T14:33:31;14.20;99.90
25582;DHT22;13462;50.764;4.332;2023-05-09T14:35:57;14.20;99.90
25582;DHT22;13462;50.764;4.332;2023-05-09T14:38:22;14.00;99.90
25582;DHT22;13462;50.764;4.332;2023-05-09T14:40:48;14.00;99.90
25582;DHT22;13462;50.764;4.332;2023-05-09T14:43:13;13.90;99.90
25582;DHT22;13462;50.764;4.332;2023-05-09T14:45:39;14.00;99.90
25582;DHT22;13462;50.764;4.332;2023-05-09T14:48:05;13.90;99.90
25582;DHT22;13462;50.764;4.332;2023-05-09T14:50:31;14.00;99.90
25582;DHT22;13462;50.764;4.332;2023-05-09T14:52:57;13.90;99.90
25582;DHT22;13462;50.764;4.332;2023-05-09T14:55:24;13.80;99.90
25582;DHT22;13462;50.764;4.332;2023-05-09T14:57:50;13.90;99.90
25582;DHT22;13462;50.764;4.332;2023-05-09T15:00:16;13.80;99.90
25582;DHT22;13462;50.764;4.332;2023-05-09T15:02:42;13.90;99.90
25582;DHT22;13462;50.764;4.332;2023-05-09T15:05:08;13.90;99.90
25582;DHT22;13462;50.764;4.332;2023-05-09T15:07:33;14.10;99.90
25582;DHT22;13462;50.764;4.332;2023-05-09T15:09:59;14.00;99.90
25582;DHT22;13462;50.764;4.332;2023-05-09T15:12:25;14.00;99.90
25582;DHT22;13462;50.764;4.332;2023-05-09T15:14:51;14.10;99.90
25582;DHT22;13462;50.764;4.332;2023-05-09T15:17:18;14.10;99.90
25582;DHT22;13462;50.764;4.332;2023-05-09T15:19:44;14.20;99.90
25582;DHT22;13462;50.764;4.332;2023-05-09T15:22:09;14.20;99.90
25582;DHT22;13462;50.764;4.332;2023-05-09T15:24:35;14.10;99.90
25582;DHT22;13462;50.764;4.332;2023-05-09T15:27:01;14.10;99.90
25582;DHT22;13462;50.764;4.332;2023-05-09T15:29:26;14.00;99.90
25582;DHT22;13462;50.764;4.332;2023-05-09T15:31:52;13.90;99.90
25582;DHT22;13462;50.764;4.332;2023-05-09T15:34:18;13.80;99.90
25582;DHT22;13462;50.764;4.332;2023-05-09T15:36:43;13.90;99.90
25582;DHT22;13462;50.764;4.332;2023-05-09T15:39:09;13.90;99.90
25582;DHT22;13462;50.764;4.332;2023-05-09T15:41:34;13.90;99.90
25582;DHT22;13462;50.764;4.332;2023-05-09T15:44:00;13.90;99.90
25582;DHT22;13462;50.764;4.332;2023-05-09T15:46:25;14.10;99.90
25582;DHT22;13462;50.764;4.332;2023-05-09T15:48:51;14.20;99.90